Lincolnton, NC

6:34 AM EDT on March 30, 2017 (GMT -0400)
Lincolnton-Lincoln County Regional

Weather History for KIPJ - May, 2013

Change the Weather History Date:

Tuesday, May 14, 2013

  Actual Average (KCLT) Record (KCLT)
Temperature  
Mean Temperature 53 °F -  
Max Temperature 71 °F 79 °F 95 °F (1956)
Min Temperature 35 °F 57 °F 41 °F (1917)
Degree Days  
Heating Degree Days 12    
Growing Degree Days 3 (Base 50)    
Moisture  
Dew Point 37 °F    
Average Humidity 54    
Maximum Humidity 100    
Minimum Humidity 27    
Precipitation  
Precipitation 0.00 in - - ()
Sea Level Pressure  
Sea Level Pressure 30.18 in    
Wind  
Wind Speed 3 mph (SW)    
Max Wind Speed 14 mph    
Max Gust Speed 21 mph    
Visibility 10 miles    
Events      
Averages and records for this station are not official NWS values.
T = Trace of Precipitation, MM = Missing Value Source: NWS Daily Summary

Daily Weather History Graph

Daily Weather History Graph

Search for Another Location

Airport or City:

Trip Planner

Search our weather history database for the weather conditions in past years. The results will help you decide how hot, cold, wet, or windy it might be!

Date:

Astronomy

May. 14, 2013 Rise Set
Actual Time 6:20 AM EDT 8:21 PM EDT
Civil Twilight 5:52 AM EDT 8:50 PM EDT
Nautical Twilight 5:18 AM EDT 9:24 PM EDT
Astronomical Twilight 4:41 AM EDT 10:01 PM EDT
Moon 9:58 AM EDT (5/14) No Moon Set
Length of Visible Light 14h 57m
Length of Day
14h 01m
Waxing Crescent, 19% of the Moon is Illuminated
May 14
Waxing Crescent
May 18
First Quarter
May 25
Full
May 31
Last Quarter
Jun 8
New

Hourly Weather History & Observations

Time (EDT) Temp. Windchill Dew Point Humidity Pressure Visibility Wind Dir Wind Speed Gust Speed Precip Events Conditions
12:15 AM 44.6 °F - 35.6 °F 71% 30.19 in 10.0 mi Calm Calm - N/A   Clear
12:35 AM 44.6 °F 43.1 °F 35.6 °F 71% 30.19 in 10.0 mi West 3.5 mph - N/A   Clear
12:55 AM 48.2 °F - 32.0 °F 54% 30.19 in 10.0 mi Calm Calm - N/A   Clear
1:15 AM 44.6 °F 43.1 °F 33.8 °F 66% 30.20 in 10.0 mi NW 3.5 mph - N/A   Clear
1:35 AM 44.6 °F - 33.8 °F 66% 30.19 in 10.0 mi Calm Calm - N/A   Clear
1:55 AM 42.8 °F - 35.6 °F 76% 30.19 in 10.0 mi Calm Calm - N/A   Clear
2:15 AM 42.8 °F - 37.4 °F 81% 30.19 in 10.0 mi Calm Calm - N/A   Clear
2:35 AM 41.0 °F - 35.6 °F 81% 30.19 in 10.0 mi Calm Calm - N/A   Clear
2:55 AM 41.0 °F - 37.4 °F 87% 30.20 in 10.0 mi Calm Calm - N/A   Clear
3:15 AM 41.0 °F - 37.4 °F 87% 30.20 in 10.0 mi Calm Calm - N/A   Clear
3:35 AM 39.2 °F - 37.4 °F 93% 30.21 in 10.0 mi Calm Calm - N/A   Clear
3:55 AM 37.4 °F - 35.6 °F 93% 30.21 in 10.0 mi Calm Calm - N/A   Clear
4:15 AM 39.2 °F - 37.4 °F 93% 30.21 in 10.0 mi Calm Calm - N/A   Clear
4:35 AM 37.4 °F - 37.4 °F 100% 30.21 in 10.0 mi Calm Calm - N/A   Clear
4:55 AM 37.4 °F - 35.6 °F 93% 30.21 in 10.0 mi Calm Calm - N/A   Clear
5:15 AM 35.6 °F - 35.6 °F 100% 30.22 in 10.0 mi Calm Calm - N/A   Clear
5:35 AM 35.6 °F - 35.6 °F 100% 30.23 in 10.0 mi Calm Calm - N/A   Clear
5:55 AM 37.4 °F - 35.6 °F 93% 30.23 in 10.0 mi Calm Calm - N/A   Clear
6:15 AM 35.6 °F - 35.6 °F 100% 30.24 in 10.0 mi Calm Calm - N/A   Clear
6:35 AM 35.6 °F - 35.6 °F 100% 30.25 in 10.0 mi Calm Calm - N/A   Clear
6:55 AM 37.4 °F - 35.6 °F 93% 30.25 in 10.0 mi Calm Calm - N/A   Clear
7:15 AM 39.2 °F - 37.4 °F 93% 30.26 in 10.0 mi Calm Calm - N/A   Clear
7:35 AM 41.0 °F - 37.4 °F 87% 30.25 in 10.0 mi Calm Calm - N/A   Clear
7:55 AM 44.6 °F - 37.4 °F 76% 30.26 in 10.0 mi Calm Calm - N/A   Clear
8:15 AM 48.2 °F - 39.2 °F 71% 30.26 in 10.0 mi Calm Calm - N/A   Clear
8:35 AM 51.8 °F - 35.6 °F 54% 30.26 in 10.0 mi Calm Calm - N/A   Clear
8:55 AM 53.6 °F - 33.8 °F 47% 30.26 in 10.0 mi Calm Calm - N/A   Clear
9:15 AM 55.4 °F - 33.8 °F 44% 30.26 in 10.0 mi SE 3.5 mph - N/A   Clear
9:35 AM 55.4 °F - 32.0 °F 41% 30.26 in 10.0 mi South 4.6 mph - N/A   Clear
9:55 AM 59.0 °F - 33.8 °F 39% 30.26 in 10.0 mi Calm Calm - N/A   Clear
10:15 AM 59.0 °F - 33.8 °F 39% 30.26 in 10.0 mi Calm Calm - N/A   Clear
10:35 AM 60.8 °F - 32.0 °F 34% 30.26 in 10.0 mi Calm Calm - N/A   Clear
10:55 AM 60.8 °F - 33.8 °F 36% 30.26 in 10.0 mi West 4.6 mph - N/A   Clear
11:15 AM 62.6 °F - 32.0 °F 32% 30.27 in 10.0 mi SW 3.5 mph - N/A   Clear
11:35 AM 62.6 °F - 33.8 °F 34% 30.26 in 10.0 mi SW 8.1 mph - N/A   Clear
11:55 AM 62.6 °F - 33.8 °F 34% 30.25 in 10.0 mi WSW 5.8 mph - N/A   Clear
12:15 PM 64.4 °F - 33.8 °F 32% 30.25 in 10.0 mi WSW 5.8 mph - N/A   Clear
12:35 PM 66.2 °F - 33.8 °F 30% 30.24 in 10.0 mi WSW 6.9 mph - N/A   Clear
12:55 PM 66.2 °F - 32.0 °F 28% 30.23 in 10.0 mi WSW 8.1 mph - N/A   Clear
1:15 PM 68.0 °F - 33.8 °F 28% 30.22 in 10.0 mi WSW 4.6 mph - N/A   Clear
1:35 PM 68.0 °F - 33.8 °F 28% 30.21 in 10.0 mi SW 8.1 mph - N/A   Clear
1:55 PM 68.0 °F - 33.8 °F 28% 30.20 in 10.0 mi WSW 9.2 mph - N/A   Clear
2:15 PM 69.8 °F - 33.8 °F 27% 30.20 in 10.0 mi SW 11.5 mph 17.3 mph N/A   Clear
2:35 PM 69.8 °F - 33.8 °F 27% 30.18 in 10.0 mi SW 10.4 mph - N/A   Clear
2:55 PM 69.8 °F - 33.8 °F 27% 30.18 in 10.0 mi WSW 4.6 mph 17.3 mph N/A   Clear
3:15 PM 69.8 °F - 33.8 °F 27% 30.17 in 10.0 mi SW 9.2 mph - N/A   Clear
3:35 PM 71.6 °F - 35.6 °F 27% 30.15 in 10.0 mi SW 4.6 mph - N/A   Clear
3:55 PM 71.6 °F - 35.6 °F 27% 30.14 in 10.0 mi SW 8.1 mph - N/A   Clear
4:15 PM 71.6 °F - 37.4 °F 29% 30.13 in 10.0 mi SSW 9.2 mph 18.4 mph N/A   Clear
4:35 PM 71.6 °F - 37.4 °F 29% 30.13 in 10.0 mi SW 10.4 mph 18.4 mph N/A   Clear
4:55 PM 71.6 °F - 37.4 °F 29% 30.12 in 10.0 mi WSW 12.7 mph 20.7 mph N/A   Clear
5:15 PM 71.6 °F - 37.4 °F 29% 30.12 in 10.0 mi SW 11.5 mph 19.6 mph N/A   Clear
5:35 PM 71.6 °F - 37.4 °F 29% 30.12 in 10.0 mi SW 9.2 mph - N/A   Clear
5:55 PM 71.6 °F - 37.4 °F 29% 30.12 in 10.0 mi SW 10.4 mph 18.4 mph N/A   Clear
6:15 PM 71.6 °F - 37.4 °F 29% 30.12 in 10.0 mi SW 13.8 mph 18.4 mph N/A   Clear
6:35 PM 71.6 °F - 37.4 °F 29% 30.12 in 10.0 mi SW 11.5 mph 18.4 mph N/A   Clear
6:55 PM 71.6 °F - 37.4 °F 29% 30.12 in 10.0 mi SW 9.2 mph - N/A   Clear
7:15 PM 69.8 °F - 39.2 °F 33% 30.11 in 10.0 mi SW 8.1 mph - N/A   Clear
7:35 PM 68.0 °F - 39.2 °F 35% 30.10 in 10.0 mi SW 5.8 mph - N/A   Clear
7:55 PM 68.0 °F - 39.2 °F 35% 30.10 in 10.0 mi SW 4.6 mph - N/A   Clear
8:15 PM 64.4 °F - 41.0 °F 42% 30.09 in 10.0 mi SW 4.6 mph - N/A   Clear
8:35 PM 64.4 °F - 41.0 °F 42% 30.09 in 10.0 mi SSW 5.8 mph - N/A   Clear
8:55 PM 62.6 °F - 41.0 °F 45% 30.08 in 10.0 mi SW 4.6 mph - N/A   Clear
9:15 PM 62.6 °F - 41.0 °F 45% 30.08 in 10.0 mi SW 4.6 mph - N/A   Clear
9:35 PM 60.8 °F - 42.8 °F 52% 30.09 in 10.0 mi WSW 3.5 mph - N/A   Clear
9:55 PM 60.8 °F - 42.8 °F 52% 30.10 in 10.0 mi SW 3.5 mph - N/A   Clear
10:15 PM 60.8 °F - 42.8 °F 52% 30.10 in 10.0 mi WSW 3.5 mph - N/A   Clear
10:35 PM 59.0 °F - 42.8 °F 55% 30.10 in 10.0 mi WSW 3.5 mph - N/A   Clear
10:55 PM 59.0 °F - 42.8 °F 55% 30.09 in 10.0 mi Calm Calm - N/A   Clear
11:15 PM 59.0 °F - 42.8 °F 55% 30.08 in 10.0 mi WSW 3.5 mph - N/A   Clear
11:35 PM 55.4 °F - 44.6 °F 67% 30.09 in 10.0 mi Calm Calm - N/A   Clear
11:55 PM 53.6 °F - 44.6 °F 72% 30.08 in 10.0 mi Calm Calm - N/A   Clear